sensor_id;sensor_type;location;lat;lon;timestamp;pressure;altitude;pressure_sealevel;temperature;humidity
70916;BME280;58557;50.982;-3.222;2023-05-29T00:00:03;101824.67;;;13.41;67.98
70916;BME280;58557;50.982;-3.222;2023-05-29T00:02:28;101823.37;;;13.96;67.46
70916;BME280;58557;50.982;-3.222;2023-05-29T00:04:54;101828.38;;;13.66;66.49
70916;BME280;58557;50.982;-3.222;2023-05-29T00:07:20;101829.07;;;12.96;68.98
70916;BME280;58557;50.982;-3.222;2023-05-29T00:09:45;101835.15;;;13.70;67.02
70916;BME280;58557;50.982;-3.222;2023-05-29T00:12:11;101840.51;;;14.66;63.68
70916;BME280;58557;50.982;-3.222;2023-05-29T00:14:36;101846.96;;;14.40;63.27
70916;BME280;58557;50.982;-3.222;2023-05-29T00:17:02;101844.57;;;14.37;62.84
70916;BME280;58557;50.982;-3.222;2023-05-29T00:19:28;101836.53;;;13.83;64.75
70916;BME280;58557;50.982;-3.222;2023-05-29T00:21:53;101843.06;;;14.24;63.12
70916;BME280;58557;50.982;-3.222;2023-05-29T00:24:18;101844.60;;;14.27;63.72
70916;BME280;58557;50.982;-3.222;2023-05-29T00:26:44;101848.88;;;13.20;67.67
70916;BME280;58557;50.982;-3.222;2023-05-29T00:29:09;101845.38;;;13.86;66.71
70916;BME280;58557;50.982;-3.222;2023-05-29T00:31:34;101848.10;;;13.42;67.36
70916;BME280;58557;50.982;-3.222;2023-05-29T00:34:00;101852.22;;;14.40;64.09
70916;BME280;58557;50.982;-3.222;2023-05-29T00:36:25;101858.21;;;14.43;63.37
70916;BME280;58557;50.982;-3.222;2023-05-29T00:38:50;101863.04;;;14.84;62.32
70916;BME280;58557;50.982;-3.222;2023-05-29T00:41:16;101866.40;;;14.50;62.34
70916;BME280;58557;50.982;-3.222;2023-05-29T00:43:41;101874.52;;;15.52;58.89
70916;BME280;58557;50.982;-3.222;2023-05-29T00:46:07;101877.97;;;15.66;56.75
70916;BME280;58557;50.982;-3.222;2023-05-29T00:48:32;101878.35;;;15.74;55.80
70916;BME280;58557;50.982;-3.222;2023-05-29T00:50:57;101883.76;;;15.45;57.05
70916;BME280;58557;50.982;-3.222;2023-05-29T00:53:24;101884.36;;;15.14;58.63
70916;BME280;58557;50.982;-3.222;2023-05-29T00:55:49;101882.28;;;15.31;58.81
70916;BME280;58557;50.982;-3.222;2023-05-29T00:58:14;101880.89;;;14.56;61.42
70916;BME280;58557;50.982;-3.222;2023-05-29T01:00:40;101878.01;;;14.65;62.38
70916;BME280;58557;50.982;-3.222;2023-05-29T01:03:06;101879.96;;;14.24;63.51
70916;BME280;58557;50.982;-3.222;2023-05-29T01:05:33;101880.89;;;14.19;62.17
70916;BME280;58557;50.982;-3.222;2023-05-29T01:07:57;101879.03;;;14.59;61.81
70916;BME280;58557;50.982;-3.222;2023-05-29T01:10:22;101879.17;;;14.22;63.12
70916;BME280;58557;50.982;-3.222;2023-05-29T01:12:50;101884.59;;;14.79;61.98
70916;BME280;58557;50.982;-3.222;2023-05-29T01:15:21;101885.10;;;13.68;65.01
70916;BME280;58557;50.982;-3.222;2023-05-29T01:17:50;101891.14;;;13.58;66.04
70916;BME280;58557;50.982;-3.222;2023-05-29T01:20:16;101885.43;;;14.05;64.50
70916;BME280;58557;50.982;-3.222;2023-05-29T01:25:01;101898.05;;;13.63;66.36
70916;BME280;58557;50.982;-3.222;2023-05-29T01:27:21;101901.50;;;13.26;69.61
70916;BME280;58557;50.982;-3.222;2023-05-29T01:29:46;101897.79;;;13.29;68.69
70916;BME280;58557;50.982;-3.222;2023-05-29T01:32:11;101900.55;;;13.21;68.18
70916;BME280;58557;50.982;-3.222;2023-05-29T01:34:36;101900.13;;;13.18;69.49
70916;BME280;58557;50.982;-3.222;2023-05-29T01:37:01;101895.71;;;12.16;72.26
70916;BME280;58557;50.982;-3.222;2023-05-29T01:39:27;101903.65;;;11.45;77.03
70916;BME280;58557;50.982;-3.222;2023-05-29T01:41:53;101904.34;;;12.43;72.00
70916;BME280;58557;50.982;-3.222;2023-05-29T01:44:19;101900.13;;;12.79;70.70
70916;BME280;58557;50.982;-3.222;2023-05-29T01:46:44;101904.36;;;12.34;70.70
70916;BME280;58557;50.982;-3.222;2023-05-29T01:49:10;101904.44;;;13.45;67.88
70916;BME280;58557;50.982;-3.222;2023-05-29T01:51:35;101909.97;;;12.86;69.46
70916;BME280;58557;50.982;-3.222;2023-05-29T01:54:00;101908.18;;;12.86;68.67
70916;BME280;58557;50.982;-3.222;2023-05-29T01:56:27;101909.10;;;12.63;70.29
70916;BME280;58557;50.982;-3.222;2023-05-29T01:58:51;101911.64;;;12.46;71.01
70916;BME280;58557;50.982;-3.222;2023-05-29T02:01:16;101915.69;;;12.40;71.15
70916;BME280;58557;50.982;-3.222;2023-05-29T02:03:41;101916.22;;;12.14;71.69
70916;BME280;58557;50.982;-3.222;2023-05-29T02:06:06;101916.48;;;12.31;69.26
70916;BME280;58557;50.982;-3.222;2023-05-29T02:08:32;101912.16;;;12.19;70.87
70916;BME280;58557;50.982;-3.222;2023-05-29T02:10:57;101923.31;;;11.85;71.86
70916;BME280;58557;50.982;-3.222;2023-05-29T02:13:23;101920.47;;;11.44;73.32
70916;BME280;58557;50.982;-3.222;2023-05-29T02:15:49;101923.20;;;11.80;70.83
70916;BME280;58557;50.982;-3.222;2023-05-29T02:18:15;101922.55;;;11.30;71.61
70916;BME280;58557;50.982;-3.222;2023-05-29T02:20:40;101918.88;;;11.87;69.50
70916;BME280;58557;50.982;-3.222;2023-05-29T02:23:05;101922.94;;;11.90;70.04
70916;BME280;58557;50.982;-3.222;2023-05-29T02:25:31;101917.08;;;11.20;70.72
70916;BME280;58557;50.982;-3.222;2023-05-29T02:27:57;101920.17;;;11.26;72.90
70916;BME280;58557;50.982;-3.222;2023-05-29T02:30:22;101920.20;;;11.37;69.86
70916;BME280;58557;50.982;-3.222;2023-05-29T02:32:48;101918.51;;;11.48;68.63
70916;BME280;58557;50.982;-3.222;2023-05-29T02:35:13;101918.88;;;11.56;68.82
70916;BME280;58557;50.982;-3.222;2023-05-29T02:37:38;101923.24;;;10.79;70.67
70916;BME280;58557;50.982;-3.222;2023-05-29T02:40:05;101924.01;;;10.97;71.42
70916;BME280;58557;50.982;-3.222;2023-05-29T02:42:29;101920.29;;;10.68;71.00
70916;BME280;58557;50.982;-3.222;2023-05-29T02:44:55;101918.55;;;10.72;72.08
70916;BME280;58557;50.982;-3.222;2023-05-29T02:47:21;101911.38;;;10.75;70.96
70916;BME280;58557;50.982;-3.222;2023-05-29T02:49:46;101913.74;;;10.89;70.11
70916;BME280;58557;50.982;-3.222;2023-05-29T02:52:12;101916.66;;;10.82;70.79
70916;BME280;58557;50.982;-3.222;2023-05-29T02:54:38;101916.10;;;11.05;69.47
70916;BME280;58557;50.982;-3.222;2023-05-29T02:57:03;101916.94;;;11.01;67.64
70916;BME280;58557;50.982;-3.222;2023-05-29T02:59:28;101919.50;;;11.31;66.17
70916;BME280;58557;50.982;-3.222;2023-05-29T03:01:53;101916.57;;;11.30;67.25
70916;BME280;58557;50.982;-3.222;2023-05-29T03:04:18;101920.89;;;10.88;68.60
70916;BME280;58557;50.982;-3.222;2023-05-29T03:06:44;101919.90;;;10.76;70.42
70916;BME280;58557;50.982;-3.222;2023-05-29T03:09:09;101920.93;;;10.92;69.54
70916;BME280;58557;50.982;-3.222;2023-05-29T03:11:35;101922.70;;;10.82;69.94
70916;BME280;58557;50.982;-3.222;2023-05-29T03:14:00;101918.75;;;10.18;72.88
70916;BME280;58557;50.982;-3.222;2023-05-29T03:16:26;101919.06;;;10.40;70.95
70916;BME280;58557;50.982;-3.222;2023-05-29T03:18:52;101921.89;;;10.72;68.66
70916;BME280;58557;50.982;-3.222;2023-05-29T03:21:17;101922.35;;;10.77;68.47
70916;BME280;58557;50.982;-3.222;2023-05-29T03:23:42;101924.52;;;10.82;66.76
70916;BME280;58557;50.982;-3.222;2023-05-29T03:26:08;101925.24;;;10.76;66.22
70916;BME280;58557;50.982;-3.222;2023-05-29T03:28:33;101921.93;;;11.37;65.53
70916;BME280;58557;50.982;-3.222;2023-05-29T03:30:59;101924.64;;;11.10;65.93
70916;BME280;58557;50.982;-3.222;2023-05-29T03:33:25;101924.06;;;10.02;69.40
70916;BME280;58557;50.982;-3.222;2023-05-29T03:35:50;101928.97;;;10.21;67.64
70916;BME280;58557;50.982;-3.222;2023-05-29T03:38:16;101931.50;;;10.34;67.10
70916;BME280;58557;50.982;-3.222;2023-05-29T03:40:41;101936.25;;;10.77;65.68
70916;BME280;58557;50.982;-3.222;2023-05-29T03:43:06;101935.31;;;9.94;68.90
70916;BME280;58557;50.982;-3.222;2023-05-29T03:45:31;101937.97;;;9.86;68.17
70916;BME280;58557;50.982;-3.222;2023-05-29T03:47:57;101940.97;;;9.67;68.71
70916;BME280;58557;50.982;-3.222;2023-05-29T03:50:22;101940.89;;;9.88;67.20
70916;BME280;58557;50.982;-3.222;2023-05-29T03:52:48;101943.18;;;9.93;67.48
70916;BME280;58557;50.982;-3.222;2023-05-29T03:55:13;101944.31;;;9.87;66.51
70916;BME280;58557;50.982;-3.222;2023-05-29T03:57:38;101946.10;;;9.96;65.29
70916;BME280;58557;50.982;-3.222;2023-05-29T04:00:05;101947.07;;;10.04;66.31
70916;BME280;58557;50.982;-3.222;2023-05-29T04:02:29;101949.05;;;10.33;63.06
70916;BME280;58557;50.982;-3.222;2023-05-29T04:04:55;101949.54;;;10.35;63.32
70916;BME280;58557;50.982;-3.222;2023-05-29T04:07:19;101946.79;;;9.63;64.82
70916;BME280;58557;50.982;-3.222;2023-05-29T04:09:45;101945.70;;;10.06;63.62
70916;BME280;58557;50.982;-3.222;2023-05-29T04:12:10;101952.26;;;9.34;65.94
70916;BME280;58557;50.982;-3.222;2023-05-29T04:14:36;101961.33;;;9.07;67.69
70916;BME280;58557;50.982;-3.222;2023-05-29T04:17:01;101966.85;;;9.52;66.01
70916;BME280;58557;50.982;-3.222;2023-05-29T04:19:26;101966.11;;;9.46;66.12
70916;BME280;58557;50.982;-3.222;2023-05-29T04:21:52;101969.10;;;8.91;66.36
70916;BME280;58557;50.982;-3.222;2023-05-29T04:24:17;101973.02;;;9.58;65.24
70916;BME280;58557;50.982;-3.222;2023-05-29T04:26:42;101974.64;;;9.28;65.30
70916;BME280;58557;50.982;-3.222;2023-05-29T04:29:08;101972.21;;;9.93;63.99
70916;BME280;58557;50.982;-3.222;2023-05-29T04:31:32;101972.11;;;10.21;60.78
70916;BME280;58557;50.982;-3.222;2023-05-29T04:33:58;101970.22;;;9.46;63.81
70916;BME280;58557;50.982;-3.222;2023-05-29T04:36:24;101966.65;;;9.68;63.27
70916;BME280;58557;50.982;-3.222;2023-05-29T04:38:48;101969.72;;;9.26;63.96
70916;BME280;58557;50.982;-3.222;2023-05-29T04:41:13;101969.86;;;9.30;64.71
70916;BME280;58557;50.982;-3.222;2023-05-29T04:43:39;101967.08;;;8.41;66.42
70916;BME280;58557;50.982;-3.222;2023-05-29T04:46:04;101971.87;;;8.92;65.74
70916;BME280;58557;50.982;-3.222;2023-05-29T04:48:29;101973.06;;;8.80;65.28
70916;BME280;58557;50.982;-3.222;2023-05-29T04:50:55;101974.23;;;9.41;63.04
70916;BME280;58557;50.982;-3.222;2023-05-29T04:53:20;101980.27;;;8.96;63.60
70916;BME280;58557;50.982;-3.222;2023-05-29T04:55:45;101977.05;;;8.72;65.38
70916;BME280;58557;50.982;-3.222;2023-05-29T04:58:11;101982.95;;;9.01;64.24
70916;BME280;58557;50.982;-3.222;2023-05-29T05:00:36;101984.70;;;9.04;64.54
70916;BME280;58557;50.982;-3.222;2023-05-29T05:03:02;101990.24;;;8.84;65.98
70916;BME280;58557;50.982;-3.222;2023-05-29T05:05:28;101992.18;;;9.44;63.06
70916;BME280;58557;50.982;-3.222;2023-05-29T05:07:53;101987.94;;;9.44;63.20
70916;BME280;58557;50.982;-3.222;2023-05-29T05:10:18;101986.58;;;9.34;63.34
70916;BME280;58557;50.982;-3.222;2023-05-29T05:12:44;101982.39;;;9.21;62.93
70916;BME280;58557;50.982;-3.222;2023-05-29T05:15:10;101985.31;;;9.15;63.69
70916;BME280;58557;50.982;-3.222;2023-05-29T05:17:34;101988.28;;;9.30;63.33
70916;BME280;58557;50.982;-3.222;2023-05-29T05:19:59;101986.95;;;8.85;65.84
70916;BME280;58557;50.982;-3.222;2023-05-29T05:22:24;101989.64;;;8.59;65.63
70916;BME280;58557;50.982;-3.222;2023-05-29T05:24:49;101989.86;;;8.21;67.60
70916;BME280;58557;50.982;-3.222;2023-05-29T05:27:15;101992.42;;;8.87;64.56
70916;BME280;58557;50.982;-3.222;2023-05-29T05:29:40;101992.67;;;9.28;63.59
70916;BME280;58557;50.982;-3.222;2023-05-29T05:32:06;101995.66;;;9.88;61.32
70916;BME280;58557;50.982;-3.222;2023-05-29T05:34:30;101997.91;;;9.03;63.33
70916;BME280;58557;50.982;-3.222;2023-05-29T05:36:56;102006.87;;;9.49;63.15
70916;BME280;58557;50.982;-3.222;2023-05-29T05:39:22;102006.00;;;9.24;62.71
70916;BME280;58557;50.982;-3.222;2023-05-29T05:41:47;102008.66;;;9.54;60.50
70916;BME280;58557;50.982;-3.222;2023-05-29T05:44:12;102017.22;;;9.51;61.64
70916;BME280;58557;50.982;-3.222;2023-05-29T05:46:38;102016.28;;;9.81;61.21
70916;BME280;58557;50.982;-3.222;2023-05-29T05:49:03;102022.38;;;9.83;61.24
70916;BME280;58557;50.982;-3.222;2023-05-29T05:51:29;102024.35;;;9.30;62.37
70916;BME280;58557;50.982;-3.222;2023-05-29T05:53:54;102025.88;;;9.13;62.73
70916;BME280;58557;50.982;-3.222;2023-05-29T05:56:20;102026.54;;;9.83;61.13
70916;BME280;58557;50.982;-3.222;2023-05-29T05:58:45;102027.33;;;9.25;61.98
70916;BME280;58557;50.982;-3.222;2023-05-29T06:01:11;102031.63;;;9.60;61.86
70916;BME280;58557;50.982;-3.222;2023-05-29T06:03:37;102030.51;;;9.00;64.70
70916;BME280;58557;50.982;-3.222;2023-05-29T06:06:03;102035.05;;;9.11;65.22
70916;BME280;58557;50.982;-3.222;2023-05-29T06:08:27;102029.49;;;9.30;64.52
70916;BME280;58557;50.982;-3.222;2023-05-29T06:10:52;102033.17;;;9.48;64.79
70916;BME280;58557;50.982;-3.222;2023-05-29T06:13:18;102033.95;;;9.88;61.14
70916;BME280;58557;50.982;-3.222;2023-05-29T06:15:44;102035.70;;;9.22;63.04
70916;BME280;58557;50.982;-3.222;2023-05-29T06:18:09;102032.94;;;9.89;61.04
70916;BME280;58557;50.982;-3.222;2023-05-29T06:20:34;102039.68;;;9.71;61.67
70916;BME280;58557;50.982;-3.222;2023-05-29T06:23:00;102039.68;;;9.63;62.23
70916;BME280;58557;50.982;-3.222;2023-05-29T06:25:26;102040.32;;;9.77;62.29
70916;BME280;58557;50.982;-3.222;2023-05-29T06:27:51;102037.82;;;10.22;61.43
70916;BME280;58557;50.982;-3.222;2023-05-29T06:30:16;102034.62;;;10.16;59.71
70916;BME280;58557;50.982;-3.222;2023-05-29T06:32:41;102037.96;;;10.24;59.42
70916;BME280;58557;50.982;-3.222;2023-05-29T06:35:07;102040.92;;;10.30;59.28
70916;BME280;58557;50.982;-3.222;2023-05-29T06:37:33;102036.35;;;10.58;58.17
70916;BME280;58557;50.982;-3.222;2023-05-29T06:39:58;102039.98;;;10.67;58.51
70916;BME280;58557;50.982;-3.222;2023-05-29T06:42:23;102042.78;;;9.57;62.16
70916;BME280;58557;50.982;-3.222;2023-05-29T06:44:49;102042.02;;;10.09;61.67
70916;BME280;58557;50.982;-3.222;2023-05-29T06:47:14;102038.03;;;9.69;61.06
70916;BME280;58557;50.982;-3.222;2023-05-29T06:49:39;102044.12;;;9.34;62.79
70916;BME280;58557;50.982;-3.222;2023-05-29T06:52:05;102040.16;;;8.90;63.80
70916;BME280;58557;50.982;-3.222;2023-05-29T06:54:30;102040.73;;;10.23;60.63
70916;BME280;58557;50.982;-3.222;2023-05-29T06:56:55;102041.81;;;10.26;58.65
70916;BME280;58557;50.982;-3.222;2023-05-29T06:59:20;102039.75;;;10.81;58.19
70916;BME280;58557;50.982;-3.222;2023-05-29T07:01:46;102028.34;;;10.77;57.84
70916;BME280;58557;50.982;-3.222;2023-05-29T07:04:11;102032.28;;;10.94;57.10
70916;BME280;58557;50.982;-3.222;2023-05-29T07:06:36;102036.16;;;10.11;58.93
70916;BME280;58557;50.982;-3.222;2023-05-29T07:09:02;102039.20;;;10.27;57.70
70916;BME280;58557;50.982;-3.222;2023-05-29T07:11:28;102038.82;;;10.75;56.13
70916;BME280;58557;50.982;-3.222;2023-05-29T07:13:54;102032.94;;;10.89;55.92
70916;BME280;58557;50.982;-3.222;2023-05-29T07:16:19;102030.65;;;10.66;55.84
70916;BME280;58557;50.982;-3.222;2023-05-29T07:18:45;102033.42;;;9.80;58.05
70916;BME280;58557;50.982;-3.222;2023-05-29T07:21:10;102037.99;;;10.05;57.56
70916;BME280;58557;50.982;-3.222;2023-05-29T07:23:36;102029.87;;;10.86;56.59
70916;BME280;58557;50.982;-3.222;2023-05-29T07:26:02;102027.62;;;11.02;54.59
70916;BME280;58557;50.982;-3.222;2023-05-29T07:28:28;102032.72;;;11.35;52.45
70916;BME280;58557;50.982;-3.222;2023-05-29T07:30:54;102032.68;;;11.78;52.41
70916;BME280;58557;50.982;-3.222;2023-05-29T07:33:19;102026.66;;;11.58;51.89
70916;BME280;58557;50.982;-3.222;2023-05-29T07:35:45;102028.24;;;11.19;52.63
70916;BME280;58557;50.982;-3.222;2023-05-29T07:38:12;102018.56;;;11.03;52.60
70916;BME280;58557;50.982;-3.222;2023-05-29T07:40:36;102017.51;;;11.14;51.85
70916;BME280;58557;50.982;-3.222;2023-05-29T07:43:02;102017.54;;;10.46;54.75
70916;BME280;58557;50.982;-3.222;2023-05-29T07:45:27;102025.34;;;10.62;55.47
70916;BME280;58557;50.982;-3.222;2023-05-29T07:47:53;102015.80;;;10.87;53.99
70916;BME280;58557;50.982;-3.222;2023-05-29T07:50:19;102019.16;;;11.49;51.73
70916;BME280;58557;50.982;-3.222;2023-05-29T07:52:45;102018.36;;;11.87;49.62
70916;BME280;58557;50.982;-3.222;2023-05-29T07:55:10;102026.03;;;11.84;49.95
70916;BME280;58557;50.982;-3.222;2023-05-29T07:57:36;102011.81;;;12.94;47.63
70916;BME280;58557;50.982;-3.222;2023-05-29T08:00:02;102020.03;;;12.48;48.69
70916;BME280;58557;50.982;-3.222;2023-05-29T08:02:27;102018.86;;;13.41;46.07
70916;BME280;58557;50.982;-3.222;2023-05-29T08:04:53;102021.35;;;12.09;47.73
70916;BME280;58557;50.982;-3.222;2023-05-29T08:07:19;102027.54;;;12.51;47.94
70916;BME280;58557;50.982;-3.222;2023-05-29T08:09:45;102030.05;;;12.09;48.33
70916;BME280;58557;50.982;-3.222;2023-05-29T08:12:11;102026.37;;;12.69;47.66
70916;BME280;58557;50.982;-3.222;2023-05-29T08:14:36;102021.62;;;11.74;49.34
70916;BME280;58557;50.982;-3.222;2023-05-29T08:17:01;102020.48;;;11.47;50.30
70916;BME280;58557;50.982;-3.222;2023-05-29T08:19:27;102020.37;;;12.28;47.97
70916;BME280;58557;50.982;-3.222;2023-05-29T08:21:53;102024.58;;;13.61;45.15
70916;BME280;58557;50.982;-3.222;2023-05-29T08:24:18;102024.08;;;13.42;45.17
70916;BME280;58557;50.982;-3.222;2023-05-29T08:26:44;102016.53;;;13.62;45.04
70916;BME280;58557;50.982;-3.222;2023-05-29T08:29:10;102013.31;;;13.79;43.49
70916;BME280;58557;50.982;-3.222;2023-05-29T08:31:35;102011.05;;;13.72;44.06
70916;BME280;58557;50.982;-3.222;2023-05-29T08:34:01;102015.47;;;14.71;42.14
70916;BME280;58557;50.982;-3.222;2023-05-29T08:36:27;102016.14;;;14.42;42.05
70916;BME280;58557;50.982;-3.222;2023-05-29T08:38:53;102012.10;;;14.66;42.16
70916;BME280;58557;50.982;-3.222;2023-05-29T08:41:23;102009.94;;;14.03;42.45
70916;BME280;58557;50.982;-3.222;2023-05-29T08:43:45;102010.32;;;13.47;44.14
70916;BME280;58557;50.982;-3.222;2023-05-29T08:46:09;102011.59;;;14.01;44.79
70916;BME280;58557;50.982;-3.222;2023-05-29T08:48:37;102006.05;;;14.10;42.15
70916;BME280;58557;50.982;-3.222;2023-05-29T08:51:02;102009.27;;;13.41;43.69
70916;BME280;58557;50.982;-3.222;2023-05-29T08:53:27;102006.48;;;13.53;44.60
70916;BME280;58557;50.982;-3.222;2023-05-29T08:55:53;102006.91;;;13.09;45.94
70916;BME280;58557;50.982;-3.222;2023-05-29T08:58:19;102004.00;;;13.58;44.28
70916;BME280;58557;50.982;-3.222;2023-05-29T09:00:45;101998.23;;;14.08;43.79
70916;BME280;58557;50.982;-3.222;2023-05-29T09:03:10;102002.94;;;14.76;43.50
70916;BME280;58557;50.982;-3.222;2023-05-29T09:05:35;101995.41;;;15.09;41.21
70916;BME280;58557;50.982;-3.222;2023-05-29T09:08:01;102001.64;;;13.77;43.78
70916;BME280;58557;50.982;-3.222;2023-05-29T09:10:27;101992.73;;;13.64;44.61
70916;BME280;58557;50.982;-3.222;2023-05-29T09:12:52;101993.21;;;14.54;42.72
70916;BME280;58557;50.982;-3.222;2023-05-29T09:15:19;101988.01;;;14.11;42.14
70916;BME280;58557;50.982;-3.222;2023-05-29T09:17:43;101989.44;;;13.51;42.91
70916;BME280;58557;50.982;-3.222;2023-05-29T09:20:15;101982.59;;;14.64;41.58
70916;BME280;58557;50.982;-3.222;2023-05-29T09:22:35;101984.85;;;13.74;42.61
70916;BME280;58557;50.982;-3.222;2023-05-29T09:25:00;101983.88;;;14.16;42.45
70916;BME280;58557;50.982;-3.222;2023-05-29T09:27:26;101988.99;;;14.94;40.62
70916;BME280;58557;50.982;-3.222;2023-05-29T09:29:51;101993.36;;;15.43;39.59
70916;BME280;58557;50.982;-3.222;2023-05-29T09:32:18;101991.41;;;15.49;40.82
70916;BME280;58557;50.982;-3.222;2023-05-29T09:34:43;101995.15;;;14.65;41.02
70916;BME280;58557;50.982;-3.222;2023-05-29T09:37:09;101988.81;;;14.53;41.51
70916;BME280;58557;50.982;-3.222;2023-05-29T09:42:00;101986.39;;;14.96;39.84
70916;BME280;58557;50.982;-3.222;2023-05-29T09:44:26;101986.44;;;15.99;38.46
70916;BME280;58557;50.982;-3.222;2023-05-29T09:46:51;101993.98;;;16.19;38.48
70916;BME280;58557;50.982;-3.222;2023-05-29T09:49:22;101990.46;;;16.03;37.76
70916;BME280;58557;50.982;-3.222;2023-05-29T09:51:42;102000.30;;;15.10;39.22
70916;BME280;58557;50.982;-3.222;2023-05-29T09:54:14;101988.68;;;15.11;39.84
70916;BME280;58557;50.982;-3.222;2023-05-29T09:56:34;101992.19;;;15.74;39.87
70916;BME280;58557;50.982;-3.222;2023-05-29T09:58:59;101989.14;;;15.11;41.17
70916;BME280;58557;50.982;-3.222;2023-05-29T10:01:25;101984.44;;;14.66;41.18
70916;BME280;58557;50.982;-3.222;2023-05-29T10:03:51;101983.18;;;14.86;40.13
70916;BME280;58557;50.982;-3.222;2023-05-29T10:06:18;101985.70;;;15.29;40.67
70916;BME280;58557;50.982;-3.222;2023-05-29T10:08:46;101981.17;;;15.89;39.12
70916;BME280;58557;50.982;-3.222;2023-05-29T10:11:09;101981.83;;;15.04;40.51
70916;BME280;58557;50.982;-3.222;2023-05-29T10:13:36;101984.39;;;15.62;39.27
70916;BME280;58557;50.982;-3.222;2023-05-29T10:15:59;101984.13;;;15.88;38.31
70916;BME280;58557;50.982;-3.222;2023-05-29T10:18:27;101980.78;;;15.33;39.69
70916;BME280;58557;50.982;-3.222;2023-05-29T10:20:51;101981.65;;;15.07;40.34
70916;BME280;58557;50.982;-3.222;2023-05-29T10:23:16;101987.71;;;15.14;39.00
70916;BME280;58557;50.982;-3.222;2023-05-29T10:25:44;101988.43;;;15.99;38.59
70916;BME280;58557;50.982;-3.222;2023-05-29T10:28:07;101990.02;;;15.55;37.98
70916;BME280;58557;50.982;-3.222;2023-05-29T10:30:37;101997.59;;;15.68;38.56
70916;BME280;58557;50.982;-3.222;2023-05-29T10:33:11;102003.38;;;16.26;36.72
70916;BME280;58557;50.982;-3.222;2023-05-29T10:35:31;101991.38;;;16.49;36.32
70916;BME280;58557;50.982;-3.222;2023-05-29T10:37:54;101995.54;;;16.87;36.10
70916;BME280;58557;50.982;-3.222;2023-05-29T10:40:16;101985.83;;;17.25;35.82
70916;BME280;58557;50.982;-3.222;2023-05-29T10:42:42;101998.56;;;15.95;37.52
70916;BME280;58557;50.982;-3.222;2023-05-29T10:45:07;101992.33;;;15.54;38.11
70916;BME280;58557;50.982;-3.222;2023-05-29T10:47:32;101992.68;;;15.39;38.55
70916;BME280;58557;50.982;-3.222;2023-05-29T10:50:00;101987.15;;;15.60;37.91
70916;BME280;58557;50.982;-3.222;2023-05-29T10:52:24;101988.35;;;15.88;38.42
70916;BME280;58557;50.982;-3.222;2023-05-29T10:54:52;101986.61;;;15.44;38.72
70916;BME280;58557;50.982;-3.222;2023-05-29T10:57:15;101993.04;;;16.02;37.91
70916;BME280;58557;50.982;-3.222;2023-05-29T10:59:40;101984.07;;;16.57;36.53
70916;BME280;58557;50.982;-3.222;2023-05-29T11:02:06;101982.74;;;17.65;36.42
70916;BME280;58557;50.982;-3.222;2023-05-29T11:04:32;101982.83;;;16.48;36.93
70916;BME280;58557;50.982;-3.222;2023-05-29T11:06:58;101977.55;;;17.20;35.84
70916;BME280;58557;50.982;-3.222;2023-05-29T11:09:28;101982.26;;;17.44;37.24
70916;BME280;58557;50.982;-3.222;2023-05-29T11:14:14;101980.52;;;17.21;37.44
70916;BME280;58557;50.982;-3.222;2023-05-29T11:16:41;101975.07;;;17.25;36.13
70916;BME280;58557;50.982;-3.222;2023-05-29T11:19:07;101972.35;;;18.06;35.61
70916;BME280;58557;50.982;-3.222;2023-05-29T11:21:34;101981.61;;;17.96;36.35
70916;BME280;58557;50.982;-3.222;2023-05-29T11:23:58;101969.74;;;17.13;36.02
70916;BME280;58557;50.982;-3.222;2023-05-29T11:26:25;101969.87;;;17.21;36.20
70916;BME280;58557;50.982;-3.222;2023-05-29T11:28:49;101966.59;;;16.79;37.02
70916;BME280;58557;50.982;-3.222;2023-05-29T11:31:15;101969.93;;;16.66;37.02
70916;BME280;58557;50.982;-3.222;2023-05-29T11:33:40;101969.93;;;16.68;37.73
70916;BME280;58557;50.982;-3.222;2023-05-29T11:36:06;101967.49;;;17.43;35.66
70916;BME280;58557;50.982;-3.222;2023-05-29T11:38:31;101968.86;;;16.97;37.88
70916;BME280;58557;50.982;-3.222;2023-05-29T11:40:56;101975.53;;;16.44;37.76
70916;BME280;58557;50.982;-3.222;2023-05-29T11:43:22;101972.62;;;16.37;38.36
70916;BME280;58557;50.982;-3.222;2023-05-29T11:45:47;101960.56;;;16.68;37.12
70916;BME280;58557;50.982;-3.222;2023-05-29T11:48:13;101968.48;;;16.30;37.43
70916;BME280;58557;50.982;-3.222;2023-05-29T11:50:39;101962.80;;;16.22;37.85
70916;BME280;58557;50.982;-3.222;2023-05-29T11:53:06;101962.05;;;16.91;37.61
70916;BME280;58557;50.982;-3.222;2023-05-29T11:55:30;101963.86;;;17.32;35.98
70916;BME280;58557;50.982;-3.222;2023-05-29T11:57:57;101952.72;;;17.10;36.34
70916;BME280;58557;50.982;-3.222;2023-05-29T12:00:22;101954.12;;;17.44;35.92
70916;BME280;58557;50.982;-3.222;2023-05-29T12:02:47;101951.49;;;18.62;34.64
70916;BME280;58557;50.982;-3.222;2023-05-29T12:05:13;101948.75;;;18.78;34.93
70916;BME280;58557;50.982;-3.222;2023-05-29T12:07:38;101953.80;;;17.48;34.92
70916;BME280;58557;50.982;-3.222;2023-05-29T12:10:10;101957.46;;;17.06;36.45
70916;BME280;58557;50.982;-3.222;2023-05-29T12:12:29;101953.24;;;18.03;35.20
70916;BME280;58557;50.982;-3.222;2023-05-29T12:14:55;101948.57;;;18.09;34.56
70916;BME280;58557;50.982;-3.222;2023-05-29T12:17:21;101954.38;;;16.68;36.60
70916;BME280;58557;50.982;-3.222;2023-05-29T12:19:46;101956.50;;;18.12;36.15
70916;BME280;58557;50.982;-3.222;2023-05-29T12:22:12;101958.83;;;18.41;35.17
70916;BME280;58557;50.982;-3.222;2023-05-29T12:24:37;101955.72;;;16.74;35.96
70916;BME280;58557;50.982;-3.222;2023-05-29T12:27:04;101959.07;;;16.34;37.27
70916;BME280;58557;50.982;-3.222;2023-05-29T12:29:30;101952.06;;;16.47;37.75
70916;BME280;58557;50.982;-3.222;2023-05-29T12:31:57;101953.51;;;16.93;36.93
70916;BME280;58557;50.982;-3.222;2023-05-29T12:34:20;101952.26;;;18.09;36.64
70916;BME280;58557;50.982;-3.222;2023-05-29T12:36:46;101954.24;;;18.17;35.03
70916;BME280;58557;50.982;-3.222;2023-05-29T12:39:11;101958.22;;;18.77;35.15